createdAt,value
2022-12-04T00:01:21.801Z,12.55
2022-12-04T00:03:52.981Z,12.95
2022-12-04T00:06:21.316Z,13.73
2022-12-04T00:08:48.885Z,14.55
2022-12-04T00:11:18.566Z,13.52
2022-12-04T00:13:45.617Z,12.18
2022-12-04T00:16:18.625Z,10.95
2022-12-04T00:21:14.636Z,11.50
2022-12-04T00:23:42.667Z,10.25
2022-12-04T00:26:12.378Z,8.98
2022-12-04T00:28:40.058Z,9.38
2022-12-04T00:31:08.803Z,11.55
2022-12-04T00:33:36.222Z,10.80
2022-12-04T00:36:05.959Z,10.85
2022-12-04T00:38:32.826Z,11.20
2022-12-04T00:41:00.730Z,11.05
2022-12-04T00:43:28.447Z,12.77
2022-12-04T00:45:55.118Z,12.95
2022-12-04T00:48:23.165Z,13.73
2022-12-04T00:50:50.109Z,10.85
2022-12-04T00:53:16.799Z,11.23
2022-12-04T00:55:44.842Z,11.32
2022-12-04T00:58:11.916Z,12.13
2022-12-04T01:00:40.901Z,12.38
2022-12-04T01:03:08.775Z,13.13
2022-12-04T01:05:40.421Z,11.70
2022-12-04T01:08:07.415Z,11.13
2022-12-04T01:10:34.363Z,13.57
2022-12-04T01:13:01.271Z,10.55
2022-12-04T01:15:27.695Z,10.52
2022-12-04T01:17:54.128Z,12.60
2022-12-04T01:20:20.644Z,10.95
2022-12-04T01:22:47.592Z,11.90
2022-12-04T01:25:14.165Z,11.15
2022-12-04T01:27:41.057Z,9.63
2022-12-04T01:30:08.045Z,11.50
2022-12-04T01:32:35.393Z,9.15
2022-12-04T01:35:01.913Z,10.75
2022-12-04T01:37:31.784Z,10.32
2022-12-04T01:39:58.640Z,10.05
2022-12-04T01:42:25.517Z,9.95
2022-12-04T01:45:36.599Z,10.13
2022-12-04T01:48:18.644Z,9.40
2022-12-04T01:50:47.654Z,10.70
2022-12-04T01:53:14.642Z,9.23
2022-12-04T01:55:42.035Z,9.18
2022-12-04T01:58:09.636Z,8.85
2022-12-04T02:00:36.307Z,7.65
2022-12-04T02:03:03.643Z,9.52
2022-12-04T02:05:30.848Z,8.98
2022-12-04T02:08:01.970Z,7.38
2022-12-04T02:10:42.114Z,7.30
2022-12-04T02:13:23.770Z,8.63
2022-12-04T02:16:03.472Z,9.65
2022-12-04T02:18:53.119Z,9.10
2022-12-04T02:21:37.252Z,7.70
2022-12-04T02:24:12.607Z,8.80
2022-12-04T02:27:24.612Z,7.38
2022-12-04T02:30:03.776Z,9.05
2022-12-04T02:33:00.197Z,10.02
2022-12-04T02:35:31.879Z,8.93
2022-12-04T02:38:16.503Z,7.18
2022-12-04T02:41:07.445Z,9.20
2022-12-04T02:43:42.376Z,8.63
2022-12-04T02:46:46.789Z,8.45
2022-12-04T02:49:19.323Z,7.47
2022-12-04T02:51:48.544Z,6.18
2022-12-04T02:54:34.577Z,8.70
2022-12-04T02:57:04.433Z,8.93
2022-12-04T02:59:36.490Z,7.80
2022-12-04T03:02:11.109Z,9.35
2022-12-04T03:04:39.539Z,7.28
2022-12-04T03:07:20.019Z,9.35
2022-12-04T03:09:59.918Z,9.00
2022-12-04T03:12:50.383Z,8.90
2022-12-04T03:15:26.577Z,8.48
2022-12-04T03:18:01.007Z,9.68
2022-12-04T03:20:30.538Z,9.02
2022-12-04T03:23:03.334Z,6.90
2022-12-04T03:25:35.730Z,10.23
2022-12-04T03:28:10.565Z,8.23
2022-12-04T03:30:46.947Z,7.43
2022-12-04T03:33:18.632Z,8.38
2022-12-04T03:36:06.634Z,8.25
2022-12-04T03:38:33.388Z,10.73
2022-12-04T03:41:06.584Z,8.30
2022-12-04T03:44:04.203Z,9.18
2022-12-04T03:46:52.788Z,8.15
2022-12-04T03:49:45.289Z,8.20
2022-12-04T03:52:29.760Z,8.60
2022-12-04T03:55:10.582Z,7.47
2022-12-04T03:57:43.847Z,9.38
2022-12-04T04:00:16.447Z,8.48
2022-12-04T04:02:53.385Z,9.07
2022-12-04T04:05:21.540Z,8.63
2022-12-04T04:07:56.497Z,7.68
2022-12-04T04:10:26.482Z,7.50
2022-12-04T04:13:20.373Z,6.57
2022-12-04T04:16:13.980Z,11.00
2022-12-04T04:19:01.776Z,8.20
2022-12-04T04:21:51.843Z,9.45
2022-12-04T04:24:42.751Z,9.50
2022-12-04T04:27:09.484Z,9.63
2022-12-04T04:29:36.711Z,8.63
2022-12-04T04:32:18.918Z,7.13
2022-12-04T04:34:54.954Z,10.70
2022-12-04T04:37:26.819Z,9.25
2022-12-04T04:40:11.638Z,9.68
2022-12-04T04:42:54.581Z,7.45
2022-12-04T04:45:27.466Z,8.18
2022-12-04T04:48:00.183Z,9.32
2022-12-04T04:50:27.620Z,10.23
2022-12-04T04:53:01.298Z,10.88
2022-12-04T04:55:29.130Z,8.07
2022-12-04T04:58:06.667Z,8.68
2022-12-04T05:00:33.567Z,6.85
2022-12-04T05:02:59.978Z,11.05
2022-12-04T05:05:26.590Z,9.52
2022-12-04T05:07:54.663Z,8.23
2022-12-04T05:10:21.510Z,8.93
2022-12-04T05:15:15.375Z,9.02
2022-12-04T05:17:41.754Z,8.23
2022-12-04T05:20:08.691Z,8.18
2022-12-04T05:22:37.068Z,9.25
2022-12-04T05:25:04.564Z,8.75
2022-12-04T05:27:32.420Z,9.20
2022-12-04T05:32:28.007Z,9.02
2022-12-04T05:34:56.105Z,7.68
2022-12-04T05:37:23.364Z,8.07
2022-12-04T05:39:49.768Z,7.88
2022-12-04T05:42:16.834Z,9.00
2022-12-04T05:44:43.457Z,9.20
2022-12-04T05:47:10.023Z,8.05
2022-12-04T05:49:36.648Z,8.65
2022-12-04T05:52:04.928Z,9.10
2022-12-04T05:54:31.829Z,8.20
2022-12-04T05:56:58.434Z,7.90
2022-12-04T05:59:25.192Z,9.07
2022-12-04T06:01:52.184Z,8.50
2022-12-04T06:04:18.717Z,9.10
2022-12-04T06:06:45.339Z,7.65
2022-12-04T06:09:12.318Z,8.80
2022-12-04T06:14:10.522Z,8.00
2022-12-04T06:16:40.445Z,10.13
2022-12-04T06:19:12.708Z,9.95
2022-12-04T06:21:40.736Z,8.82
2022-12-04T06:24:08.613Z,8.60
2022-12-04T06:26:35.127Z,6.63
2022-12-04T06:29:01.628Z,10.38
2022-12-04T06:31:29.676Z,10.43
2022-12-04T06:33:57.873Z,8.32
2022-12-04T06:36:24.974Z,11.75
2022-12-04T06:41:22.742Z,9.07
2022-12-04T06:43:51.526Z,8.63
2022-12-04T06:46:21.006Z,10.30
2022-12-04T06:48:48.176Z,8.23
2022-12-04T06:51:17.655Z,9.32
2022-12-04T06:53:44.555Z,10.10
2022-12-04T06:56:14.306Z,9.80
2022-12-04T06:58:42.319Z,11.48
2022-12-04T07:01:11.491Z,9.30
2022-12-04T07:03:38.539Z,8.45
2022-12-04T07:06:25.913Z,9.50
2022-12-04T07:09:14.071Z,10.50
2022-12-04T07:11:41.408Z,10.32
2022-12-04T07:14:08.392Z,9.88
2022-12-04T07:19:09.826Z,7.75
2022-12-04T07:21:36.298Z,9.80
2022-12-04T07:24:03.008Z,9.07
2022-12-04T07:26:30.571Z,9.63
2022-12-04T07:28:58.162Z,10.68
2022-12-04T07:31:27.040Z,12.82
2022-12-04T07:33:54.576Z,9.35
2022-12-04T07:36:22.486Z,8.82
2022-12-04T07:38:49.816Z,11.93
2022-12-04T07:41:17.418Z,13.70
2022-12-04T07:43:44.793Z,11.32
2022-12-04T07:46:18.259Z,9.85
2022-12-04T07:48:45.039Z,10.20
2022-12-04T07:51:12.891Z,10.70
2022-12-04T07:53:40.342Z,14.77
2022-12-04T07:56:07.787Z,11.18
2022-12-04T07:58:35.050Z,10.50
2022-12-04T08:01:10.896Z,10.60
2022-12-04T08:03:43.523Z,11.25
2022-12-04T08:06:13.563Z,10.52
2022-12-04T08:08:40.368Z,11.20
2022-12-04T08:11:08.865Z,14.38
2022-12-04T08:13:36.261Z,13.55
2022-12-04T08:18:30.900Z,10.35
2022-12-04T08:21:12.415Z,12.35
2022-12-04T08:23:40.433Z,11.65
2022-12-04T08:26:08.015Z,10.73
2022-12-04T08:28:35.314Z,9.73
2022-12-04T08:31:07.108Z,10.48
2022-12-04T08:33:34.375Z,10.30
2022-12-04T08:36:03.075Z,12.82
2022-12-04T08:38:30.401Z,10.52
2022-12-04T08:41:01.186Z,10.52
2022-12-04T08:43:27.824Z,11.38
2022-12-04T08:45:58.357Z,10.65
2022-12-04T08:48:25.683Z,9.68
2022-12-04T08:50:52.542Z,9.95
2022-12-04T08:53:19.771Z,10.57
2022-12-04T08:55:46.159Z,6.95
2022-12-04T08:58:13.008Z,9.50
2022-12-04T09:00:39.533Z,9.75
2022-12-04T09:03:06.292Z,11.32
2022-12-04T09:05:32.779Z,9.60
2022-12-04T09:07:59.204Z,10.45
2022-12-04T09:10:25.680Z,9.98
2022-12-04T09:12:52.549Z,8.75
2022-12-04T09:15:19.210Z,9.88
2022-12-04T09:17:45.711Z,8.65
2022-12-04T09:20:12.638Z,12.68
2022-12-04T09:23:02.176Z,12.07
2022-12-04T09:25:26.394Z,13.27
2022-12-04T09:27:53.042Z,11.45
2022-12-04T09:30:19.745Z,12.20
2022-12-04T09:32:46.653Z,14.70
2022-12-04T09:35:13.269Z,10.00
2022-12-04T09:37:40.029Z,9.68
2022-12-04T09:40:07.886Z,11.65
2022-12-04T09:42:56.921Z,10.07
2022-12-04T09:45:26.353Z,13.20
2022-12-04T09:48:02.103Z,11.52
2022-12-04T09:50:37.588Z,9.48
2022-12-04T09:53:14.041Z,10.32
2022-12-04T09:56:01.979Z,9.73
2022-12-04T09:58:59.736Z,11.63
2022-12-04T10:01:32.982Z,11.15
2022-12-04T10:04:05.719Z,9.85
2022-12-04T10:06:55.271Z,12.48
2022-12-04T10:09:44.081Z,10.35
2022-12-04T10:12:25.602Z,10.43
2022-12-04T10:15:08.733Z,10.25
2022-12-04T10:17:57.190Z,13.70
2022-12-04T10:20:24.084Z,12.85
2022-12-04T10:23:13.745Z,11.70
2022-12-04T10:25:42.077Z,10.82
2022-12-04T10:28:27.479Z,10.38
2022-12-04T10:30:57.810Z,10.70
2022-12-04T10:33:35.554Z,10.60
2022-12-04T10:36:02.798Z,8.90
2022-12-04T10:39:03.405Z,9.15
2022-12-04T10:41:47.907Z,9.27
2022-12-04T10:44:17.007Z,9.73
2022-12-04T10:46:46.322Z,9.18
2022-12-04T10:49:24.640Z,11.57
2022-12-04T10:51:52.031Z,11.68
2022-12-04T10:54:43.271Z,11.13
2022-12-04T10:59:51.350Z,10.73
2022-12-04T11:02:25.647Z,10.20
2022-12-04T11:04:56.977Z,10.07
2022-12-04T11:07:30.091Z,10.57
2022-12-04T11:10:03.336Z,9.13
2022-12-04T11:12:31.305Z,10.65
2022-12-04T11:15:06.951Z,13.02
2022-12-04T11:17:34.376Z,12.65
2022-12-04T11:20:21.203Z,9.98
2022-12-04T11:22:52.401Z,10.18
2022-12-04T11:25:20.675Z,10.13
2022-12-04T11:27:51.240Z,13.05
2022-12-04T11:30:35.959Z,11.88
2022-12-04T11:33:04.443Z,10.68
2022-12-04T11:35:32.160Z,9.13
2022-12-04T11:38:08.215Z,9.75
2022-12-04T11:40:36.337Z,8.88
2022-12-04T11:43:14.050Z,12.65
2022-12-04T11:45:40.789Z,11.98
2022-12-04T11:48:16.584Z,10.68
2022-12-04T11:51:06.924Z,10.40
2022-12-04T11:53:56.200Z,17.63
2022-12-04T11:56:29.051Z,11.30
2022-12-04T11:59:15.697Z,10.43
2022-12-04T12:02:13.212Z,11.25
2022-12-04T12:07:21.379Z,10.68
2022-12-04T12:09:59.857Z,15.10
2022-12-04T12:12:36.326Z,12.57
2022-12-04T12:15:24.836Z,9.63
2022-12-04T12:18:36.335Z,8.23
2022-12-04T12:21:12.583Z,8.75
2022-12-04T12:24:08.667Z,7.05
2022-12-04T12:27:06.987Z,6.25
2022-12-04T12:29:57.348Z,7.22
2022-12-04T12:32:30.306Z,8.32
2022-12-04T12:34:59.208Z,8.02
2022-12-04T12:37:41.588Z,7.05
2022-12-04T12:40:33.056Z,7.60
2022-12-04T12:43:11.128Z,7.05
2022-12-04T12:45:50.321Z,7.15
2022-12-04T12:48:26.536Z,7.10
2022-12-04T12:51:22.195Z,6.35
2022-12-04T12:53:51.315Z,7.90
2022-12-04T12:56:21.858Z,6.00
2022-12-04T12:58:54.228Z,8.20
2022-12-04T13:01:45.365Z,6.43
2022-12-04T13:04:36.430Z,7.90
2022-12-04T13:07:24.928Z,8.50
2022-12-04T13:10:24.118Z,8.27
2022-12-04T13:12:58.001Z,6.00
2022-12-04T13:15:41.192Z,6.65
2022-12-04T13:18:15.506Z,7.85
2022-12-04T13:20:53.538Z,7.88
2022-12-04T13:23:36.030Z,9.25
2022-12-04T13:26:42.564Z,7.47
2022-12-04T13:29:41.188Z,6.32
2022-12-04T13:32:42.951Z,6.70
2022-12-04T13:35:42.595Z,5.15
2022-12-04T13:38:34.534Z,8.13
2022-12-04T13:41:17.017Z,7.35
2022-12-04T13:43:44.219Z,7.85
2022-12-04T13:46:22.953Z,9.75
2022-12-04T13:48:49.460Z,6.47
2022-12-04T13:51:16.072Z,7.20
2022-12-04T13:53:43.584Z,7.55
2022-12-04T13:56:30.881Z,7.00
2022-12-04T13:59:01.995Z,8.60
2022-12-04T14:01:38.324Z,7.30
2022-12-04T14:04:05.900Z,8.20
2022-12-04T14:06:40.995Z,9.05
2022-12-04T14:09:20.628Z,8.25
2022-12-04T14:11:52.809Z,9.50
2022-12-04T14:14:32.364Z,8.05
2022-12-04T14:16:59.793Z,8.55
2022-12-04T14:19:28.697Z,9.38
2022-12-04T14:21:55.765Z,9.63
2022-12-04T14:24:25.363Z,7.22
2022-12-04T14:29:47.415Z,7.50
2022-12-04T14:32:23.098Z,8.30
2022-12-04T14:34:50.298Z,8.95
2022-12-04T14:37:40.718Z,9.93
2022-12-04T14:40:20.476Z,7.78
2022-12-04T14:42:48.901Z,7.82
2022-12-04T14:45:31.773Z,8.45
2022-12-04T14:48:31.314Z,8.90
2022-12-04T14:51:16.820Z,10.70
2022-12-04T14:53:49.018Z,8.27
2022-12-04T14:56:41.550Z,10.65
2022-12-04T14:59:23.417Z,12.27
2022-12-04T15:01:53.591Z,9.02
2022-12-04T15:04:34.581Z,9.85
2022-12-04T15:07:02.425Z,8.35
2022-12-04T15:09:48.209Z,9.93
2022-12-04T15:12:36.965Z,16.20
2022-12-04T15:15:27.744Z,12.27
2022-12-04T15:18:02.017Z,10.70
2022-12-04T15:20:37.415Z,13.30
2022-12-04T15:23:06.394Z,12.13
2022-12-04T15:25:54.378Z,11.35
2022-12-04T15:28:31.274Z,10.35
2022-12-04T15:31:01.695Z,15.38
2022-12-04T15:33:35.535Z,10.40
2022-12-04T15:36:08.195Z,23.95
2022-12-04T15:38:36.434Z,12.85
2022-12-04T15:41:03.060Z,14.35
2022-12-04T15:43:32.024Z,23.35
2022-12-04T15:45:59.384Z,18.58
2022-12-04T15:48:30.985Z,16.27
2022-12-04T15:51:08.733Z,14.48
2022-12-04T15:53:38.988Z,18.17
2022-12-04T15:56:09.543Z,13.52
2022-12-04T15:58:39.205Z,12.43
2022-12-04T16:01:09.012Z,18.67
2022-12-04T16:03:41.897Z,18.67
2022-12-04T16:06:29.119Z,16.10
2022-12-04T16:08:58.867Z,14.50
2022-12-04T16:11:37.754Z,14.57
2022-12-04T16:14:13.079Z,12.57
2022-12-04T16:16:44.421Z,15.82
2022-12-04T16:19:30.287Z,12.23
2022-12-04T16:21:57.600Z,13.07
2022-12-04T16:26:52.585Z,11.57
2022-12-04T16:29:19.322Z,13.18
2022-12-04T16:31:45.802Z,13.68
2022-12-04T16:34:13.200Z,15.50
2022-12-04T16:36:40.286Z,15.82
2022-12-04T16:39:06.914Z,20.35
2022-12-04T16:41:34.542Z,14.88
2022-12-04T16:46:29.527Z,18.73
2022-12-04T16:48:56.781Z,15.82
2022-12-04T16:51:26.986Z,14.35
2022-12-04T16:53:57.972Z,15.77
2022-12-04T16:56:24.656Z,16.27
2022-12-04T16:58:51.174Z,18.52
2022-12-04T17:01:26.984Z,16.40
2022-12-04T17:03:53.648Z,16.38
2022-12-04T17:06:20.439Z,16.45
2022-12-04T17:08:47.199Z,20.52
2022-12-04T17:11:16.052Z,18.88
2022-12-04T17:13:43.300Z,16.88
2022-12-04T17:16:14.015Z,17.23
2022-12-04T17:18:42.746Z,18.27
2022-12-04T17:21:10.852Z,16.70
2022-12-04T17:23:38.236Z,23.98
2022-12-04T17:26:10.850Z,19.15
2022-12-04T17:28:38.454Z,18.35
2022-12-04T17:31:13.622Z,20.70
2022-12-04T17:33:41.176Z,19.83
2022-12-04T17:36:19.823Z,41.72
2022-12-04T17:38:46.747Z,19.35
2022-12-04T17:41:15.077Z,18.77
2022-12-04T17:43:43.094Z,18.40
2022-12-04T17:46:11.725Z,19.48
2022-12-04T17:48:39.081Z,16.65
2022-12-04T17:51:11.295Z,18.77
2022-12-04T17:53:38.453Z,19.27
2022-12-04T17:56:11.336Z,17.00
2022-12-04T17:58:38.754Z,17.00
2022-12-04T18:01:07.976Z,19.10
2022-12-04T18:03:35.764Z,20.55
2022-12-04T18:06:14.411Z,25.50
2022-12-04T18:08:45.280Z,26.10
2022-12-04T18:11:16.636Z,20.65
2022-12-04T18:13:43.550Z,21.73
2022-12-04T18:16:11.305Z,20.60
2022-12-04T18:18:38.835Z,20.88
2022-12-04T18:21:11.082Z,26.02
2022-12-04T18:23:44.443Z,23.25
2022-12-04T18:28:43.365Z,17.20
2022-12-04T18:31:10.652Z,16.80
2022-12-04T18:33:39.590Z,21.48
2022-12-04T18:36:09.294Z,22.15
2022-12-04T18:38:35.839Z,26.67
2022-12-04T18:41:04.043Z,19.73
2022-12-04T18:43:38.681Z,20.50
2022-12-04T18:46:08.466Z,18.92
2022-12-04T18:48:36.771Z,21.08
2022-12-04T18:51:24.662Z,22.27
2022-12-04T18:53:53.025Z,21.83
2022-12-04T18:56:19.938Z,22.45
2022-12-04T18:58:46.934Z,22.30
2022-12-04T19:01:16.052Z,19.83
2022-12-04T19:03:42.606Z,20.70
2022-12-04T19:06:09.120Z,22.65
2022-12-04T19:08:41.407Z,22.67
2022-12-04T19:11:12.865Z,23.90
2022-12-04T19:13:39.655Z,22.00
2022-12-04T19:16:12.338Z,25.92
2022-12-04T19:18:38.799Z,23.02
2022-12-04T19:21:06.382Z,24.65
2022-12-04T19:23:32.767Z,23.33
2022-12-04T19:26:00.582Z,25.65
2022-12-04T19:28:27.942Z,25.27
2022-12-04T19:33:21.983Z,23.17
2022-12-04T19:36:03.632Z,26.27
2022-12-04T19:38:32.014Z,24.73
2022-12-04T19:41:13.508Z,26.10
2022-12-04T19:43:45.691Z,22.25
2022-12-04T19:46:15.295Z,22.08
2022-12-04T19:48:42.676Z,29.63
2022-12-04T19:51:12.047Z,24.75
2022-12-04T19:53:41.056Z,29.52
2022-12-04T19:56:13.800Z,39.05
2022-12-04T19:58:41.185Z,33.80
2022-12-04T20:01:10.640Z,27.67
2022-12-04T20:03:37.590Z,26.77
2022-12-04T20:06:06.497Z,34.17
2022-12-04T20:08:34.146Z,28.17
2022-12-04T20:11:11.913Z,23.70
2022-12-04T20:13:39.922Z,25.08
2022-12-04T20:16:09.418Z,26.63
2022-12-04T20:18:37.782Z,28.60
2022-12-04T20:21:10.714Z,29.48
2022-12-04T20:23:49.837Z,24.00
2022-12-04T20:26:21.940Z,23.90
2022-12-04T20:28:49.094Z,28.33
2022-12-04T20:31:24.146Z,27.98
2022-12-04T20:33:52.926Z,28.58
2022-12-04T20:36:21.770Z,25.85
2022-12-04T20:38:49.737Z,22.95
2022-12-04T20:41:16.310Z,23.92
2022-12-04T20:43:43.492Z,23.63
2022-12-04T20:48:53.561Z,24.67
2022-12-04T20:51:24.922Z,22.23
2022-12-04T20:53:53.382Z,26.05
2022-12-04T20:56:25.702Z,19.33
2022-12-04T20:58:57.814Z,24.33
2022-12-04T21:01:25.053Z,21.23
2022-12-04T21:03:53.017Z,22.70
2022-12-04T21:06:31.017Z,19.95
2022-12-04T21:09:02.084Z,24.55
2022-12-04T21:11:36.619Z,18.85
2022-12-04T21:14:25.710Z,18.40
2022-12-04T21:16:52.476Z,22.35
2022-12-04T21:19:21.433Z,22.75
2022-12-04T21:21:48.663Z,18.75
2022-12-04T21:24:18.274Z,21.48
2022-12-04T21:26:45.727Z,18.65
2022-12-04T21:29:12.159Z,20.52
2022-12-04T21:31:39.661Z,21.15
2022-12-04T21:34:08.621Z,22.60
2022-12-04T21:36:35.058Z,18.52
2022-12-04T21:39:01.746Z,23.17
2022-12-04T21:41:46.975Z,21.60
2022-12-04T21:44:16.847Z,24.00
2022-12-04T21:46:44.446Z,19.67
2022-12-04T21:49:11.916Z,21.52
2022-12-04T21:51:56.948Z,20.40
2022-12-04T21:54:25.581Z,22.50
2022-12-04T21:56:52.121Z,20.65
2022-12-04T21:59:18.602Z,23.50
2022-12-04T22:01:45.644Z,21.92
2022-12-04T22:04:12.677Z,23.35
2022-12-04T22:06:39.610Z,24.35
2022-12-04T22:09:09.807Z,23.40
2022-12-04T22:11:36.916Z,23.23
2022-12-04T22:14:03.765Z,23.08
2022-12-04T22:16:31.359Z,24.33
2022-12-04T22:18:59.907Z,21.83
2022-12-04T22:24:01.453Z,15.68
2022-12-04T22:26:29.567Z,20.88
2022-12-04T22:28:57.449Z,17.58
2022-12-04T22:31:28.301Z,20.73
2022-12-04T22:33:57.143Z,20.77
2022-12-04T22:36:27.058Z,19.55
2022-12-04T22:39:10.732Z,16.63
2022-12-04T22:41:38.414Z,19.98
2022-12-04T22:44:05.500Z,16.70
2022-12-04T22:46:32.569Z,17.42
2022-12-04T22:48:59.824Z,22.60
2022-12-04T22:51:27.405Z,20.35
2022-12-04T22:53:55.979Z,20.55
2022-12-04T22:56:27.080Z,19.42
2022-12-04T22:58:54.495Z,18.80
2022-12-04T23:01:24.401Z,21.02
2022-12-04T23:03:51.707Z,16.83
2022-12-04T23:08:46.588Z,21.98
2022-12-04T23:11:17.133Z,19.55
2022-12-04T23:13:44.407Z,17.10
2022-12-04T23:16:13.261Z,21.73
2022-12-04T23:18:43.415Z,18.85
2022-12-04T23:21:12.018Z,20.23
2022-12-04T23:23:40.614Z,20.95
2022-12-04T23:26:11.439Z,21.52
2022-12-04T23:28:38.568Z,20.65
2022-12-04T23:31:05.832Z,21.35
2022-12-04T23:33:33.490Z,20.33
2022-12-04T23:36:01.482Z,19.30
2022-12-04T23:38:29.206Z,21.83
2022-12-04T23:41:05.663Z,21.35
2022-12-04T23:43:33.179Z,15.57
2022-12-04T23:46:03.360Z,18.15
2022-12-04T23:48:32.522Z,17.38
2022-12-04T23:50:59.093Z,18.25
2022-12-04T23:53:25.703Z,19.17
2022-12-04T23:56:00.436Z,15.30
2022-12-04T23:58:27.079Z,18.52
